sensor_id;sensor_type;location;lat;lon;timestamp;temperature;humidity
4433;DHT22;2229;48.708;9.706;2022-07-06T00:01:35;17.40;86.00
4433;DHT22;2229;48.708;9.706;2022-07-06T00:04:02;17.30;86.00
4433;DHT22;2229;48.708;9.706;2022-07-06T00:06:30;17.30;86.20
4433;DHT22;2229;48.708;9.706;2022-07-06T00:08:56;17.30;86.20
4433;DHT22;2229;48.708;9.706;2022-07-06T00:11:23;17.30;86.30
4433;DHT22;2229;48.708;9.706;2022-07-06T00:13:51;17.20;86.40
4433;DHT22;2229;48.708;9.706;2022-07-06T00:16:18;17.20;86.40
4433;DHT22;2229;48.708;9.706;2022-07-06T00:18:45;17.10;86.40
4433;DHT22;2229;48.708;9.706;2022-07-06T00:21:11;17.10;86.50
4433;DHT22;2229;48.708;9.706;2022-07-06T00:23:38;17.00;86.40
4433;DHT22;2229;48.708;9.706;2022-07-06T00:26:14;17.00;86.70
4433;DHT22;2229;48.708;9.706;2022-07-06T00:28:40;17.00;86.90
4433;DHT22;2229;48.708;9.706;2022-07-06T00:31:07;16.90;86.90
4433;DHT22;2229;48.708;9.706;2022-07-06T00:33:33;16.90;87.00
4433;DHT22;2229;48.708;9.706;2022-07-06T00:36:01;16.90;87.20
4433;DHT22;2229;48.708;9.706;2022-07-06T00:38:27;16.80;87.20
4433;DHT22;2229;48.708;9.706;2022-07-06T00:40:54;16.80;87.40
4433;DHT22;2229;48.708;9.706;2022-07-06T00:43:23;16.70;87.60
4433;DHT22;2229;48.708;9.706;2022-07-06T00:45:50;16.70;87.50
4433;DHT22;2229;48.708;9.706;2022-07-06T00:48:17;16.70;87.80
4433;DHT22;2229;48.708;9.706;2022-07-06T00:50:43;16.70;88.30
4433;DHT22;2229;48.708;9.706;2022-07-06T00:53:11;16.60;88.60
4433;DHT22;2229;48.708;9.706;2022-07-06T00:55:39;16.60;88.80
4433;DHT22;2229;48.708;9.706;2022-07-06T00:58:07;16.60;89.70
4433;DHT22;2229;48.708;9.706;2022-07-06T01:00:35;16.60;89.20
4433;DHT22;2229;48.708;9.706;2022-07-06T01:03:02;16.50;88.90
4433;DHT22;2229;48.708;9.706;2022-07-06T01:05:29;16.50;88.70
4433;DHT22;2229;48.708;9.706;2022-07-06T01:07:56;16.50;88.70
4433;DHT22;2229;48.708;9.706;2022-07-06T01:10:23;16.40;88.60
4433;DHT22;2229;48.708;9.706;2022-07-06T01:12:50;16.40;88.70
4433;DHT22;2229;48.708;9.706;2022-07-06T01:15:19;16.40;88.90
4433;DHT22;2229;48.708;9.706;2022-07-06T01:17:46;16.30;89.00
4433;DHT22;2229;48.708;9.706;2022-07-06T01:20:14;16.30;89.30
4433;DHT22;2229;48.708;9.706;2022-07-06T01:22:41;16.20;89.30
4433;DHT22;2229;48.708;9.706;2022-07-06T01:25:08;16.20;89.50
4433;DHT22;2229;48.708;9.706;2022-07-06T01:27:35;16.10;89.60
4433;DHT22;2229;48.708;9.706;2022-07-06T01:30:04;16.10;89.70
4433;DHT22;2229;48.708;9.706;2022-07-06T01:32:32;16.00;89.70
4433;DHT22;2229;48.708;9.706;2022-07-06T01:34:58;16.00;89.80
4433;DHT22;2229;48.708;9.706;2022-07-06T01:37:26;16.00;90.00
4433;DHT22;2229;48.708;9.706;2022-07-06T01:39:52;15.90;90.00
4433;DHT22;2229;48.708;9.706;2022-07-06T01:42:19;15.90;90.10
4433;DHT22;2229;48.708;9.706;2022-07-06T01:44:45;15.90;90.40
4433;DHT22;2229;48.708;9.706;2022-07-06T01:47:14;15.80;90.30
4433;DHT22;2229;48.708;9.706;2022-07-06T01:49:40;15.80;90.40
4433;DHT22;2229;48.708;9.706;2022-07-06T01:52:07;15.80;90.50
4433;DHT22;2229;48.708;9.706;2022-07-06T01:54:34;15.70;90.50
4433;DHT22;2229;48.708;9.706;2022-07-06T01:57:00;15.70;90.50
4433;DHT22;2229;48.708;9.706;2022-07-06T01:59:27;15.60;90.50
4433;DHT22;2229;48.708;9.706;2022-07-06T02:01:54;15.60;90.50
4433;DHT22;2229;48.708;9.706;2022-07-06T02:04:20;15.60;90.60
4433;DHT22;2229;48.708;9.706;2022-07-06T02:06:47;15.60;90.70
4433;DHT22;2229;48.708;9.706;2022-07-06T02:09:13;15.50;90.70
4433;DHT22;2229;48.708;9.706;2022-07-06T02:11:41;15.50;90.80
4433;DHT22;2229;48.708;9.706;2022-07-06T02:14:07;15.50;90.90
4433;DHT22;2229;48.708;9.706;2022-07-06T02:16:34;15.40;90.90
4433;DHT22;2229;48.708;9.706;2022-07-06T02:19:01;15.40;91.00
4433;DHT22;2229;48.708;9.706;2022-07-06T02:21:29;15.40;91.10
4433;DHT22;2229;48.708;9.706;2022-07-06T02:23:55;15.40;91.10
4433;DHT22;2229;48.708;9.706;2022-07-06T02:26:23;15.40;91.10
4433;DHT22;2229;48.708;9.706;2022-07-06T02:28:50;15.40;91.20
4433;DHT22;2229;48.708;9.706;2022-07-06T02:31:17;15.30;91.20
4433;DHT22;2229;48.708;9.706;2022-07-06T02:33:46;15.30;91.30
4433;DHT22;2229;48.708;9.706;2022-07-06T02:36:21;15.30;91.30
4433;DHT22;2229;48.708;9.706;2022-07-06T02:38:48;15.30;91.40
4433;DHT22;2229;48.708;9.706;2022-07-06T02:41:15;15.30;91.40
4433;DHT22;2229;48.708;9.706;2022-07-06T02:43:42;15.20;91.40
4433;DHT22;2229;48.708;9.706;2022-07-06T02:46:09;15.20;91.40
4433;DHT22;2229;48.708;9.706;2022-07-06T02:48:37;15.20;91.50
4433;DHT22;2229;48.708;9.706;2022-07-06T02:51:04;15.10;91.40
4433;DHT22;2229;48.708;9.706;2022-07-06T02:53:31;15.10;91.50
4433;DHT22;2229;48.708;9.706;2022-07-06T02:55:58;15.10;91.90
4433;DHT22;2229;48.708;9.706;2022-07-06T02:58:24;15.00;91.70
4433;DHT22;2229;48.708;9.706;2022-07-06T03:00:51;15.10;91.80
4433;DHT22;2229;48.708;9.706;2022-07-06T03:03:19;15.10;91.90
4433;DHT22;2229;48.708;9.706;2022-07-06T03:05:45;15.00;91.90
4433;DHT22;2229;48.708;9.706;2022-07-06T03:08:13;15.00;91.90
4433;DHT22;2229;48.708;9.706;2022-07-06T03:10:40;15.10;91.90
4433;DHT22;2229;48.708;9.706;2022-07-06T03:13:07;15.00;91.80
4433;DHT22;2229;48.708;9.706;2022-07-06T03:15:34;15.00;92.10
4433;DHT22;2229;48.708;9.706;2022-07-06T03:18:01;14.90;91.80
4433;DHT22;2229;48.708;9.706;2022-07-06T03:20:29;14.90;91.90
4433;DHT22;2229;48.708;9.706;2022-07-06T03:22:56;14.90;92.30
4433;DHT22;2229;48.708;9.706;2022-07-06T03:25:23;14.90;92.00
4433;DHT22;2229;48.708;9.706;2022-07-06T03:27:50;14.90;92.10
4433;DHT22;2229;48.708;9.706;2022-07-06T03:30:18;14.80;92.10
4433;DHT22;2229;48.708;9.706;2022-07-06T03:32:51;14.80;92.20
4433;DHT22;2229;48.708;9.706;2022-07-06T03:35:19;14.80;92.20
4433;DHT22;2229;48.708;9.706;2022-07-06T03:37:48;14.80;92.30
4433;DHT22;2229;48.708;9.706;2022-07-06T03:40:15;14.80;92.30
4433;DHT22;2229;48.708;9.706;2022-07-06T03:42:44;14.80;92.40
4433;DHT22;2229;48.708;9.706;2022-07-06T03:45:11;14.80;92.50
4433;DHT22;2229;48.708;9.706;2022-07-06T03:47:39;14.80;92.60
4433;DHT22;2229;48.708;9.706;2022-07-06T03:50:07;14.80;92.60
4433;DHT22;2229;48.708;9.706;2022-07-06T03:52:34;14.80;92.90
4433;DHT22;2229;48.708;9.706;2022-07-06T03:55:02;14.80;92.60
4433;DHT22;2229;48.708;9.706;2022-07-06T03:57:30;14.80;92.60
4433;DHT22;2229;48.708;9.706;2022-07-06T04:00:00;14.80;92.60
4433;DHT22;2229;48.708;9.706;2022-07-06T04:02:27;14.90;92.80
4433;DHT22;2229;48.708;9.706;2022-07-06T04:04:54;14.90;92.80
4433;DHT22;2229;48.708;9.706;2022-07-06T04:07:21;14.90;92.80
4433;DHT22;2229;48.708;9.706;2022-07-06T04:09:48;14.90;92.80
4433;DHT22;2229;48.708;9.706;2022-07-06T04:12:16;15.00;92.80
4433;DHT22;2229;48.708;9.706;2022-07-06T04:14:42;15.00;92.80
4433;DHT22;2229;48.708;9.706;2022-07-06T04:17:09;15.00;92.80
4433;DHT22;2229;48.708;9.706;2022-07-06T04:19:51;15.10;92.90
4433;DHT22;2229;48.708;9.706;2022-07-06T04:22:18;15.10;93.00
4433;DHT22;2229;48.708;9.706;2022-07-06T04:24:45;15.10;93.00
4433;DHT22;2229;48.708;9.706;2022-07-06T04:27:11;15.20;93.10
4433;DHT22;2229;48.708;9.706;2022-07-06T04:29:38;15.30;93.40
4433;DHT22;2229;48.708;9.706;2022-07-06T04:32:06;15.30;93.20
4433;DHT22;2229;48.708;9.706;2022-07-06T04:34:32;15.30;93.20
4433;DHT22;2229;48.708;9.706;2022-07-06T04:36:59;15.40;93.20
4433;DHT22;2229;48.708;9.706;2022-07-06T04:39:26;15.40;93.20
4433;DHT22;2229;48.708;9.706;2022-07-06T04:41:53;15.50;93.30
4433;DHT22;2229;48.708;9.706;2022-07-06T04:44:22;15.50;93.30
4433;DHT22;2229;48.708;9.706;2022-07-06T04:46:49;15.60;93.30
4433;DHT22;2229;48.708;9.706;2022-07-06T04:49:16;15.60;93.20
4433;DHT22;2229;48.708;9.706;2022-07-06T04:51:43;15.70;93.20
4433;DHT22;2229;48.708;9.706;2022-07-06T04:54:10;15.80;93.30
4433;DHT22;2229;48.708;9.706;2022-07-06T04:56:37;15.80;93.20
4433;DHT22;2229;48.708;9.706;2022-07-06T04:59:04;15.90;93.10
4433;DHT22;2229;48.708;9.706;2022-07-06T05:01:31;16.00;93.10
4433;DHT22;2229;48.708;9.706;2022-07-06T05:03:58;16.10;93.10
4433;DHT22;2229;48.708;9.706;2022-07-06T05:06:25;16.10;92.90
4433;DHT22;2229;48.708;9.706;2022-07-06T05:08:52;16.20;93.00
4433;DHT22;2229;48.708;9.706;2022-07-06T05:11:20;16.30;92.90
4433;DHT22;2229;48.708;9.706;2022-07-06T05:13:48;16.30;92.80
4433;DHT22;2229;48.708;9.706;2022-07-06T05:16:16;16.40;92.80
4433;DHT22;2229;48.708;9.706;2022-07-06T05:18:43;16.40;93.10
4433;DHT22;2229;48.708;9.706;2022-07-06T05:21:13;16.50;92.80
4433;DHT22;2229;48.708;9.706;2022-07-06T05:23:40;16.50;92.80
4433;DHT22;2229;48.708;9.706;2022-07-06T05:26:07;16.60;92.90
4433;DHT22;2229;48.708;9.706;2022-07-06T05:28:34;16.60;93.00
4433;DHT22;2229;48.708;9.706;2022-07-06T05:31:00;16.60;93.00
4433;DHT22;2229;48.708;9.706;2022-07-06T05:33:28;16.70;93.00
4433;DHT22;2229;48.708;9.706;2022-07-06T05:35:55;16.70;92.90
4433;DHT22;2229;48.708;9.706;2022-07-06T05:38:26;16.70;92.80
4433;DHT22;2229;48.708;9.706;2022-07-06T05:40:53;16.80;92.70
4433;DHT22;2229;48.708;9.706;2022-07-06T05:43:19;16.80;92.70
4433;DHT22;2229;48.708;9.706;2022-07-06T05:45:46;16.90;92.60
4433;DHT22;2229;48.708;9.706;2022-07-06T05:48:15;16.90;92.50
4433;DHT22;2229;48.708;9.706;2022-07-06T05:51:00;17.00;92.40
4433;DHT22;2229;48.708;9.706;2022-07-06T05:53:28;17.10;92.20
4433;DHT22;2229;48.708;9.706;2022-07-06T05:55:56;17.10;92.00
4433;DHT22;2229;48.708;9.706;2022-07-06T05:58:24;17.20;92.00
4433;DHT22;2229;48.708;9.706;2022-07-06T06:00:52;17.20;91.90
4433;DHT22;2229;48.708;9.706;2022-07-06T06:03:19;17.30;91.90
4433;DHT22;2229;48.708;9.706;2022-07-06T06:05:48;17.40;91.80
4433;DHT22;2229;48.708;9.706;2022-07-06T06:08:18;17.50;91.70
4433;DHT22;2229;48.708;9.706;2022-07-06T06:10:46;17.50;91.50
4433;DHT22;2229;48.708;9.706;2022-07-06T06:13:16;17.60;91.30
4433;DHT22;2229;48.708;9.706;2022-07-06T06:15:43;17.60;91.00
4433;DHT22;2229;48.708;9.706;2022-07-06T06:18:10;17.70;90.80
4433;DHT22;2229;48.708;9.706;2022-07-06T06:20:36;17.70;90.60
4433;DHT22;2229;48.708;9.706;2022-07-06T06:23:04;17.70;90.50
4433;DHT22;2229;48.708;9.706;2022-07-06T06:25:32;17.80;90.40
4433;DHT22;2229;48.708;9.706;2022-07-06T06:28:00;17.90;90.30
4433;DHT22;2229;48.708;9.706;2022-07-06T06:30:27;17.90;90.10
4433;DHT22;2229;48.708;9.706;2022-07-06T06:33:05;17.90;90.00
4433;DHT22;2229;48.708;9.706;2022-07-06T06:35:32;18.00;90.00
4433;DHT22;2229;48.708;9.706;2022-07-06T06:37:58;18.10;89.80
4433;DHT22;2229;48.708;9.706;2022-07-06T06:40:51;18.10;89.50
4433;DHT22;2229;48.708;9.706;2022-07-06T06:43:20;18.20;89.40
4433;DHT22;2229;48.708;9.706;2022-07-06T06:45:56;18.30;89.20
4433;DHT22;2229;48.708;9.706;2022-07-06T06:48:22;18.30;88.90
4433;DHT22;2229;48.708;9.706;2022-07-06T06:50:49;18.40;88.70
4433;DHT22;2229;48.708;9.706;2022-07-06T06:53:15;18.50;88.70
4433;DHT22;2229;48.708;9.706;2022-07-06T06:55:42;18.50;88.70
4433;DHT22;2229;48.708;9.706;2022-07-06T06:58:14;18.60;88.60
4433;DHT22;2229;48.708;9.706;2022-07-06T07:00:41;18.70;88.20
4433;DHT22;2229;48.708;9.706;2022-07-06T07:03:09;18.70;88.00
4433;DHT22;2229;48.708;9.706;2022-07-06T07:05:36;18.80;87.90
4433;DHT22;2229;48.708;9.706;2022-07-06T07:08:02;18.90;87.50
4433;DHT22;2229;48.708;9.706;2022-07-06T07:10:29;18.90;87.10
4433;DHT22;2229;48.708;9.706;2022-07-06T07:12:56;19.00;86.90
4433;DHT22;2229;48.708;9.706;2022-07-06T07:15:22;19.10;86.70
4433;DHT22;2229;48.708;9.706;2022-07-06T07:17:49;19.20;86.50
4433;DHT22;2229;48.708;9.706;2022-07-06T07:20:16;19.20;86.10
4433;DHT22;2229;48.708;9.706;2022-07-06T07:22:42;19.30;85.80
4433;DHT22;2229;48.708;9.706;2022-07-06T07:25:09;19.40;85.50
4433;DHT22;2229;48.708;9.706;2022-07-06T07:27:36;19.50;85.40
4433;DHT22;2229;48.708;9.706;2022-07-06T07:30:03;19.60;85.30
4433;DHT22;2229;48.708;9.706;2022-07-06T07:32:30;19.60;85.20
4433;DHT22;2229;48.708;9.706;2022-07-06T07:34:57;19.70;84.80
4433;DHT22;2229;48.708;9.706;2022-07-06T07:37:23;19.80;84.40
4433;DHT22;2229;48.708;9.706;2022-07-06T07:39:50;19.90;84.10
4433;DHT22;2229;48.708;9.706;2022-07-06T07:42:16;20.00;84.00
4433;DHT22;2229;48.708;9.706;2022-07-06T07:44:43;20.00;83.70
4433;DHT22;2229;48.708;9.706;2022-07-06T07:47:10;20.10;83.60
4433;DHT22;2229;48.708;9.706;2022-07-06T07:49:36;20.20;83.40
4433;DHT22;2229;48.708;9.706;2022-07-06T07:52:04;20.30;82.80
4433;DHT22;2229;48.708;9.706;2022-07-06T07:54:30;20.30;82.40
4433;DHT22;2229;48.708;9.706;2022-07-06T07:56:57;20.40;82.40
4433;DHT22;2229;48.708;9.706;2022-07-06T07:59:24;20.50;82.40
4433;DHT22;2229;48.708;9.706;2022-07-06T08:01:50;20.70;82.50
4433;DHT22;2229;48.708;9.706;2022-07-06T08:04:17;20.80;81.80
4433;DHT22;2229;48.708;9.706;2022-07-06T08:06:43;20.80;81.60
4433;DHT22;2229;48.708;9.706;2022-07-06T08:09:11;20.90;81.30
4433;DHT22;2229;48.708;9.706;2022-07-06T08:11:38;21.00;81.00
4433;DHT22;2229;48.708;9.706;2022-07-06T08:14:05;21.10;80.80
4433;DHT22;2229;48.708;9.706;2022-07-06T08:16:31;21.10;80.30
4433;DHT22;2229;48.708;9.706;2022-07-06T08:18:58;21.30;80.40
4433;DHT22;2229;48.708;9.706;2022-07-06T08:21:26;21.40;80.20
4433;DHT22;2229;48.708;9.706;2022-07-06T08:23:54;21.40;79.90
4433;DHT22;2229;48.708;9.706;2022-07-06T08:26:21;21.50;79.60
4433;DHT22;2229;48.708;9.706;2022-07-06T08:28:48;21.60;79.30
4433;DHT22;2229;48.708;9.706;2022-07-06T08:31:14;21.70;79.00
4433;DHT22;2229;48.708;9.706;2022-07-06T08:33:41;21.80;78.60
4433;DHT22;2229;48.708;9.706;2022-07-06T08:36:07;21.90;78.40
4433;DHT22;2229;48.708;9.706;2022-07-06T08:38:34;22.00;78.30
4433;DHT22;2229;48.708;9.706;2022-07-06T08:41:00;22.00;77.90
4433;DHT22;2229;48.708;9.706;2022-07-06T08:43:28;22.00;77.90
4433;DHT22;2229;48.708;9.706;2022-07-06T08:45:54;22.10;77.10
4433;DHT22;2229;48.708;9.706;2022-07-06T08:48:23;22.30;77.20
4433;DHT22;2229;48.708;9.706;2022-07-06T08:50:50;22.40;77.40
4433;DHT22;2229;48.708;9.706;2022-07-06T08:53:17;22.50;76.90
4433;DHT22;2229;48.708;9.706;2022-07-06T08:55:44;22.50;76.00
4433;DHT22;2229;48.708;9.706;2022-07-06T08:58:12;22.60;76.20
4433;DHT22;2229;48.708;9.706;2022-07-06T09:00:40;22.70;76.20
4433;DHT22;2229;48.708;9.706;2022-07-06T09:03:07;22.80;76.20
4433;DHT22;2229;48.708;9.706;2022-07-06T09:05:37;22.90;76.50
4433;DHT22;2229;48.708;9.706;2022-07-06T09:08:05;23.00;76.30
4433;DHT22;2229;48.708;9.706;2022-07-06T09:10:32;23.00;76.10
4433;DHT22;2229;48.708;9.706;2022-07-06T09:13:02;23.20;76.20
4433;DHT22;2229;48.708;9.706;2022-07-06T09:15:30;23.30;76.40
4433;DHT22;2229;48.708;9.706;2022-07-06T09:17:57;23.40;75.70
4433;DHT22;2229;48.708;9.706;2022-07-06T09:20:24;23.50;75.70
4433;DHT22;2229;48.708;9.706;2022-07-06T09:22:56;23.60;75.70
4433;DHT22;2229;48.708;9.706;2022-07-06T09:25:24;23.60;75.00
4433;DHT22;2229;48.708;9.706;2022-07-06T09:27:51;23.70;75.10
4433;DHT22;2229;48.708;9.706;2022-07-06T09:30:21;23.70;74.70
4433;DHT22;2229;48.708;9.706;2022-07-06T09:32:49;23.80;74.30
4433;DHT22;2229;48.708;9.706;2022-07-06T09:35:21;23.80;74.00
4433;DHT22;2229;48.708;9.706;2022-07-06T09:38:02;23.90;73.70
4433;DHT22;2229;48.708;9.706;2022-07-06T09:40:30;24.00;73.70
4433;DHT22;2229;48.708;9.706;2022-07-06T09:43:11;24.20;73.20
4433;DHT22;2229;48.708;9.706;2022-07-06T09:45:39;24.30;72.40
4433;DHT22;2229;48.708;9.706;2022-07-06T09:48:08;24.30;73.00
4433;DHT22;2229;48.708;9.706;2022-07-06T09:50:39;24.40;72.50
4433;DHT22;2229;48.708;9.706;2022-07-06T09:53:06;24.40;72.20
4433;DHT22;2229;48.708;9.706;2022-07-06T09:55:33;24.50;72.40
4433;DHT22;2229;48.708;9.706;2022-07-06T09:58:26;24.60;71.80
4433;DHT22;2229;48.708;9.706;2022-07-06T10:00:52;24.60;71.30
4433;DHT22;2229;48.708;9.706;2022-07-06T10:03:19;24.70;71.20
4433;DHT22;2229;48.708;9.706;2022-07-06T10:05:47;24.80;71.50
4433;DHT22;2229;48.708;9.706;2022-07-06T10:08:15;24.80;71.00
4433;DHT22;2229;48.708;9.706;2022-07-06T10:10:43;24.90;71.10
4433;DHT22;2229;48.708;9.706;2022-07-06T10:13:10;25.00;71.70
4433;DHT22;2229;48.708;9.706;2022-07-06T10:15:39;25.10;70.80
4433;DHT22;2229;48.708;9.706;2022-07-06T10:18:07;25.10;70.30
4433;DHT22;2229;48.708;9.706;2022-07-06T10:20:36;25.00;70.20
4433;DHT22;2229;48.708;9.706;2022-07-06T10:23:06;24.90;70.10
4433;DHT22;2229;48.708;9.706;2022-07-06T10:25:33;24.80;70.10
4433;DHT22;2229;48.708;9.706;2022-07-06T10:28:01;24.70;69.90
4433;DHT22;2229;48.708;9.706;2022-07-06T10:30:28;24.70;69.60
4433;DHT22;2229;48.708;9.706;2022-07-06T10:32:56;24.80;69.30
4433;DHT22;2229;48.708;9.706;2022-07-06T10:35:24;24.90;69.70
4433;DHT22;2229;48.708;9.706;2022-07-06T10:38:04;24.90;69.30
4433;DHT22;2229;48.708;9.706;2022-07-06T10:40:34;24.80;68.80
4433;DHT22;2229;48.708;9.706;2022-07-06T10:43:19;24.70;69.10
4433;DHT22;2229;48.708;9.706;2022-07-06T10:45:50;24.70;69.40
4433;DHT22;2229;48.708;9.706;2022-07-06T10:48:19;24.60;69.10
4433;DHT22;2229;48.708;9.706;2022-07-06T10:50:49;24.50;69.40
4433;DHT22;2229;48.708;9.706;2022-07-06T10:53:19;24.40;69.80
4433;DHT22;2229;48.708;9.706;2022-07-06T10:55:48;24.50;69.80
4433;DHT22;2229;48.708;9.706;2022-07-06T10:58:35;24.70;69.50
4433;DHT22;2229;48.708;9.706;2022-07-06T11:01:02;24.90;69.60
4433;DHT22;2229;48.708;9.706;2022-07-06T11:03:33;24.90;69.40
4433;DHT22;2229;48.708;9.706;2022-07-06T11:06:01;24.80;68.90
4433;DHT22;2229;48.708;9.706;2022-07-06T11:08:59;24.70;68.60
4433;DHT22;2229;48.708;9.706;2022-07-06T11:11:37;24.60;69.00
4433;DHT22;2229;48.708;9.706;2022-07-06T11:14:05;24.80;69.60
4433;DHT22;2229;48.708;9.706;2022-07-06T11:16:33;25.20;68.60
4433;DHT22;2229;48.708;9.706;2022-07-06T11:19:10;25.70;68.10
4433;DHT22;2229;48.708;9.706;2022-07-06T11:21:47;26.20;68.50
4433;DHT22;2229;48.708;9.706;2022-07-06T11:24:17;26.50;68.20
4433;DHT22;2229;48.708;9.706;2022-07-06T11:26:45;26.70;68.10
4433;DHT22;2229;48.708;9.706;2022-07-06T11:29:13;27.00;66.60
4433;DHT22;2229;48.708;9.706;2022-07-06T11:31:47;27.30;65.10
4433;DHT22;2229;48.708;9.706;2022-07-06T11:34:19;27.30;63.50
4433;DHT22;2229;48.708;9.706;2022-07-06T11:36:46;27.40;63.70
4433;DHT22;2229;48.708;9.706;2022-07-06T11:39:14;27.60;63.30
4433;DHT22;2229;48.708;9.706;2022-07-06T11:41:41;27.70;62.20
4433;DHT22;2229;48.708;9.706;2022-07-06T11:44:08;27.70;61.20
4433;DHT22;2229;48.708;9.706;2022-07-06T11:46:35;27.60;61.30
4433;DHT22;2229;48.708;9.706;2022-07-06T11:49:03;27.50;61.10
4433;DHT22;2229;48.708;9.706;2022-07-06T11:51:31;27.50;60.70
4433;DHT22;2229;48.708;9.706;2022-07-06T11:53:59;27.50;60.70
4433;DHT22;2229;48.708;9.706;2022-07-06T11:56:27;27.40;61.10
4433;DHT22;2229;48.708;9.706;2022-07-06T11:58:56;27.20;61.20
4433;DHT22;2229;48.708;9.706;2022-07-06T12:01:24;26.90;61.80
4433;DHT22;2229;48.708;9.706;2022-07-06T12:03:51;26.60;62.10
4433;DHT22;2229;48.708;9.706;2022-07-06T12:06:19;26.30;62.70
4433;DHT22;2229;48.708;9.706;2022-07-06T12:08:49;26.10;63.00
4433;DHT22;2229;48.708;9.706;2022-07-06T12:11:20;26.00;62.00
4433;DHT22;2229;48.708;9.706;2022-07-06T12:13:47;26.10;62.10
4433;DHT22;2229;48.708;9.706;2022-07-06T12:16:15;26.10;62.40
4433;DHT22;2229;48.708;9.706;2022-07-06T12:18:43;26.10;63.00
4433;DHT22;2229;48.708;9.706;2022-07-06T12:21:11;26.10;63.10
4433;DHT22;2229;48.708;9.706;2022-07-06T12:23:40;26.10;62.70
4433;DHT22;2229;48.708;9.706;2022-07-06T12:26:07;26.10;62.70
4433;DHT22;2229;48.708;9.706;2022-07-06T12:28:34;26.10;62.70
4433;DHT22;2229;48.708;9.706;2022-07-06T12:31:01;26.00;62.60
4433;DHT22;2229;48.708;9.706;2022-07-06T12:33:28;26.00;62.90
4433;DHT22;2229;48.708;9.706;2022-07-06T12:35:55;25.90;63.20
4433;DHT22;2229;48.708;9.706;2022-07-06T12:38:23;25.80;62.90
4433;DHT22;2229;48.708;9.706;2022-07-06T12:40:50;25.70;62.80
4433;DHT22;2229;48.708;9.706;2022-07-06T12:43:34;25.80;62.90
4433;DHT22;2229;48.708;9.706;2022-07-06T12:46:28;25.90;63.20
4433;DHT22;2229;48.708;9.706;2022-07-06T12:48:57;26.00;63.00
4433;DHT22;2229;48.708;9.706;2022-07-06T12:51:24;26.00;62.70
4433;DHT22;2229;48.708;9.706;2022-07-06T12:53:50;25.80;63.10
4433;DHT22;2229;48.708;9.706;2022-07-06T12:56:17;25.70;62.80
4433;DHT22;2229;48.708;9.706;2022-07-06T12:58:57;25.50;62.60
4433;DHT22;2229;48.708;9.706;2022-07-06T13:01:24;25.50;63.80
4433;DHT22;2229;48.708;9.706;2022-07-06T13:03:54;25.60;63.70
4433;DHT22;2229;48.708;9.706;2022-07-06T13:06:32;25.70;63.60
4433;DHT22;2229;48.708;9.706;2022-07-06T13:08:59;25.80;63.00
4433;DHT22;2229;48.708;9.706;2022-07-06T13:11:25;25.80;63.10
4433;DHT22;2229;48.708;9.706;2022-07-06T13:13:52;25.80;62.60
4433;DHT22;2229;48.708;9.706;2022-07-06T13:16:18;25.90;63.10
4433;DHT22;2229;48.708;9.706;2022-07-06T13:18:45;25.90;63.30
4433;DHT22;2229;48.708;9.706;2022-07-06T13:21:11;25.90;63.90
4433;DHT22;2229;48.708;9.706;2022-07-06T13:23:39;25.90;63.40
4433;DHT22;2229;48.708;9.706;2022-07-06T13:26:05;25.70;63.20
4433;DHT22;2229;48.708;9.706;2022-07-06T13:28:32;25.60;63.70
4433;DHT22;2229;48.708;9.706;2022-07-06T13:30:59;25.50;64.20
4433;DHT22;2229;48.708;9.706;2022-07-06T13:33:26;25.50;64.80
4433;DHT22;2229;48.708;9.706;2022-07-06T13:35:52;25.40;64.50
4433;DHT22;2229;48.708;9.706;2022-07-06T13:38:19;25.40;64.60
4433;DHT22;2229;48.708;9.706;2022-07-06T13:40:47;25.40;64.80
4433;DHT22;2229;48.708;9.706;2022-07-06T13:43:13;25.60;65.10
4433;DHT22;2229;48.708;9.706;2022-07-06T13:45:40;25.70;64.80
4433;DHT22;2229;48.708;9.706;2022-07-06T13:48:06;25.80;64.90
4433;DHT22;2229;48.708;9.706;2022-07-06T13:50:33;26.00;65.00
4433;DHT22;2229;48.708;9.706;2022-07-06T13:52:59;26.10;65.20
4433;DHT22;2229;48.708;9.706;2022-07-06T13:55:26;26.20;65.40
4433;DHT22;2229;48.708;9.706;2022-07-06T13:57:53;26.30;65.10
4433;DHT22;2229;48.708;9.706;2022-07-06T14:00:20;26.30;64.40
4433;DHT22;2229;48.708;9.706;2022-07-06T14:02:46;26.30;64.00
4433;DHT22;2229;48.708;9.706;2022-07-06T14:05:13;26.40;64.40
4433;DHT22;2229;48.708;9.706;2022-07-06T14:07:40;26.40;64.50
4433;DHT22;2229;48.708;9.706;2022-07-06T14:10:07;26.40;64.60
4433;DHT22;2229;48.708;9.706;2022-07-06T14:12:34;26.50;64.70
4433;DHT22;2229;48.708;9.706;2022-07-06T14:15:01;26.40;64.60
4433;DHT22;2229;48.708;9.706;2022-07-06T14:17:27;26.30;64.60
4433;DHT22;2229;48.708;9.706;2022-07-06T14:19:54;26.20;64.50
4433;DHT22;2229;48.708;9.706;2022-07-06T14:22:21;26.10;64.50
4433;DHT22;2229;48.708;9.706;2022-07-06T14:24:47;25.90;64.10
4433;DHT22;2229;48.708;9.706;2022-07-06T14:27:14;25.70;64.10
4433;DHT22;2229;48.708;9.706;2022-07-06T14:29:40;25.40;64.00
4433;DHT22;2229;48.708;9.706;2022-07-06T14:32:08;25.20;64.20
4433;DHT22;2229;48.708;9.706;2022-07-06T14:34:38;25.10;64.50
4433;DHT22;2229;48.708;9.706;2022-07-06T14:37:05;25.00;64.70
4433;DHT22;2229;48.708;9.706;2022-07-06T14:39:31;25.00;65.20
4433;DHT22;2229;48.708;9.706;2022-07-06T14:41:58;25.00;64.90
4433;DHT22;2229;48.708;9.706;2022-07-06T14:44:25;25.10;65.00
4433;DHT22;2229;48.708;9.706;2022-07-06T14:46:52;25.20;64.80
4433;DHT22;2229;48.708;9.706;2022-07-06T14:49:19;25.10;64.90
4433;DHT22;2229;48.708;9.706;2022-07-06T14:51:46;25.10;64.70
4433;DHT22;2229;48.708;9.706;2022-07-06T14:54:12;25.20;64.50
4433;DHT22;2229;48.708;9.706;2022-07-06T14:56:39;25.20;64.70
4433;DHT22;2229;48.708;9.706;2022-07-06T14:59:05;25.10;64.00
4433;DHT22;2229;48.708;9.706;2022-07-06T15:01:32;24.90;64.20
4433;DHT22;2229;48.708;9.706;2022-07-06T15:03:58;24.80;64.60
4433;DHT22;2229;48.708;9.706;2022-07-06T15:06:26;24.70;64.80
4433;DHT22;2229;48.708;9.706;2022-07-06T15:08:53;24.50;64.90
4433;DHT22;2229;48.708;9.706;2022-07-06T15:11:19;24.40;64.90
4433;DHT22;2229;48.708;9.706;2022-07-06T15:13:46;24.40;65.30
4433;DHT22;2229;48.708;9.706;2022-07-06T15:16:12;24.30;65.50
4433;DHT22;2229;48.708;9.706;2022-07-06T15:18:39;24.30;65.80
4433;DHT22;2229;48.708;9.706;2022-07-06T15:21:05;24.20;65.90
4433;DHT22;2229;48.708;9.706;2022-07-06T15:23:32;24.10;65.60
4433;DHT22;2229;48.708;9.706;2022-07-06T15:25:59;24.10;65.40
4433;DHT22;2229;48.708;9.706;2022-07-06T15:28:27;24.10;65.70
4433;DHT22;2229;48.708;9.706;2022-07-06T15:30:55;24.10;65.60
4433;DHT22;2229;48.708;9.706;2022-07-06T15:33:22;24.30;65.90
4433;DHT22;2229;48.708;9.706;2022-07-06T15:35:49;24.40;65.90
4433;DHT22;2229;48.708;9.706;2022-07-06T15:38:15;24.60;65.70
4433;DHT22;2229;48.708;9.706;2022-07-06T15:40:42;24.70;65.30
4433;DHT22;2229;48.708;9.706;2022-07-06T15:43:16;24.70;64.90
4433;DHT22;2229;48.708;9.706;2022-07-06T15:45:42;24.80;64.60
4433;DHT22;2229;48.708;9.706;2022-07-06T15:48:09;24.80;64.20
4433;DHT22;2229;48.708;9.706;2022-07-06T15:50:35;24.80;64.50
4433;DHT22;2229;48.708;9.706;2022-07-06T15:53:02;24.70;64.40
4433;DHT22;2229;48.708;9.706;2022-07-06T15:55:29;24.70;64.70
4433;DHT22;2229;48.708;9.706;2022-07-06T15:57:56;24.70;64.70
4433;DHT22;2229;48.708;9.706;2022-07-06T16:00:23;24.70;64.70
4433;DHT22;2229;48.708;9.706;2022-07-06T16:02:50;24.60;64.10
4433;DHT22;2229;48.708;9.706;2022-07-06T16:05:16;24.70;64.10
4433;DHT22;2229;48.708;9.706;2022-07-06T16:07:47;24.70;63.90